Ingeniero Moneta, Argentina
Current Conditions -  °F | °C
As of 3:00 PM on Friday 19 Dec 2014 (Local Time) from SADF Reporting Station
Clear Clear  
Wind Chill: 91°   Ceiling: Unl
Heat Index: 91°   Visibility: 6mi
Dew Point: 61°   Wind: 14mph
Humidity: 36%   Direction: 320°NW
Pressure: 29.59"   Gusts: NA
Location:  33.9°S, 59.81°W
Report Text: SADF 191800Z 32012KT CAVOK 33/16 Q1002
Loading
Personal Weather Stations






























Interactive Weather Map New forecast layout! Learn more

10-Day Weather Forecast

Advertisements
Track Severe Weather on mobile